Paynesville, MN

2:45 AM CDT on April 25, 2015 (GMT -0500)
Paynesville | | Change Station
CLOSE
Current Station
Airport
Location: Paynesville,
Elevation: 1181 ft
Nearby Weather Stations

Elev 1181 ft 45.37 °N, 94.74 °W | Updated 11 minutes ago

Overcast
Overcast
40 °F
Feels Like 34 °F
N
8
Wind Variable Wind from NE

Today
High -- | Low -- °F
--% Chance of Precip.
Yesterday
High -- | Low -- °F
Precip. -- in
6:16 AM 8:17 PM
Waxing Crescent, 43% visible
Pressure 29.78 in
Visibility 1.8 miles
Clouds Overcast 600 ft
Windchill 34 °F
Dew Point 40 °F
Humidity 100%
Rainfall 0.00 in
Snow Depth Not available.
UV 0 out of 12
Pollen 8.80 out of 12
Air Quality Not available.
Flu Activity Local Activity
METAR KPEX 250734Z AUTO 05007KT 1 3/4SM BR OVC006 04/04 A2978 RMK AO2 T00420043

More Conditions Fewer Conditions

Pressure 29.78 in
Visibility 1.8 miles
Clouds Overcast 600 ft
Windchill 34 °F
Dew Point 40 °F
Humidity 100%
Rainfall 0.00 in
Snow Depth Not available.
UV 0 out of 12
Pollen 8.80 out of 12
Air Quality Not available.
Flu Activity Local Activity
METAR KPEX 250734Z AUTO 05007KT 1 3/4SM BR OVC006 04/04 A2978 RMK AO2 T00420043

More Conditions Fewer Conditions

10-Day Weather Forecast

Almanac

Astronomy

Apr. 25, 2015 Rise Set
Actual Time
Civil Twilight
Nautical Twilight
Astronomical Twilight
Moon
Length of Visible Light
Length of Day
Tomorrow will be .
, % of the Moon is Illuminated

Today's Extremes

State Highs State Lows

Community

WunderPhotos

Upload Photos

1,816,624 photos uploaded!

WunderBlogs® & News

Nearby

Air Quality

  Air Quality AQ Index Pollutant
Not available.

Snow Depth

Station Depth Elevation

Earthquake Activity

City Distance Mag. Time & Date
Minimum magnitude displayed is 2.5.

Coastal Water Temperatures

Place Temperature

Stations

Nearby Weather Stations

Station Location Temp. Windchill Dew Point Humidity Wind Precip. Elev Updated Type